createdAt,value
2023-05-08T00:00:31.076Z,16.20
2023-05-08T00:02:58.054Z,16.10
2023-05-08T00:05:25.092Z,16.10
2023-05-08T00:07:53.551Z,16.10
2023-05-08T00:10:20.320Z,16.10
2023-05-08T00:12:47.192Z,16.10
2023-05-08T00:15:13.913Z,16.10
2023-05-08T00:17:41.029Z,16.00
2023-05-08T00:20:08.848Z,16.10
2023-05-08T00:22:35.846Z,16.10
2023-05-08T00:25:04.395Z,16.10
2023-05-08T00:27:31.815Z,16.10
2023-05-08T00:29:58.943Z,16.10
2023-05-08T00:32:26.017Z,16.00
2023-05-08T00:34:52.946Z,16.00
2023-05-08T00:37:19.789Z,15.90
2023-05-08T00:39:46.700Z,15.90
2023-05-08T00:42:13.636Z,15.80
2023-05-08T00:44:41.255Z,15.80
2023-05-08T00:47:08.994Z,15.80
2023-05-08T00:49:36.248Z,15.80
2023-05-08T00:52:08.611Z,15.80
2023-05-08T00:54:39.046Z,15.80
2023-05-08T00:57:09.347Z,15.80
2023-05-08T00:59:37.285Z,15.70
2023-05-08T01:02:05.170Z,15.60
2023-05-08T01:04:33.288Z,15.60
2023-05-08T01:07:03.920Z,15.60
2023-05-08T01:09:30.818Z,15.60
2023-05-08T01:12:15.356Z,15.50
2023-05-08T01:14:55.339Z,15.40
2023-05-08T01:17:39.135Z,15.30
2023-05-08T01:20:30.043Z,15.40
2023-05-08T01:23:18.052Z,15.40
2023-05-08T01:26:05.010Z,15.40
2023-05-08T01:29:16.355Z,15.40
2023-05-08T01:32:10.093Z,15.30
2023-05-08T01:34:46.320Z,15.30
2023-05-08T01:37:17.013Z,15.40
2023-05-08T01:39:59.024Z,15.40
2023-05-08T01:42:49.359Z,15.50
2023-05-08T01:45:32.202Z,15.30
2023-05-08T01:48:08.918Z,15.30
2023-05-08T01:50:45.644Z,15.30
2023-05-08T01:53:36.806Z,15.40
2023-05-08T01:56:12.041Z,15.40
2023-05-08T01:58:40.045Z,15.20
2023-05-08T02:01:08.144Z,15.20
2023-05-08T02:03:36.697Z,15.30
2023-05-08T02:06:05.272Z,15.40
2023-05-08T02:08:33.327Z,15.40
2023-05-08T02:11:01.766Z,15.30
2023-05-08T02:13:30.271Z,15.40
2023-05-08T02:15:58.281Z,15.30
2023-05-08T02:18:26.281Z,15.40
2023-05-08T02:20:54.842Z,15.40
2023-05-08T02:23:24.592Z,15.40
2023-05-08T02:25:53.249Z,15.40
2023-05-08T02:28:21.665Z,15.40
2023-05-08T02:30:50.232Z,15.50
2023-05-08T02:33:18.438Z,15.50
2023-05-08T02:35:46.880Z,15.40
2023-05-08T02:38:15.716Z,15.50
2023-05-08T02:40:47.293Z,15.50
2023-05-08T02:43:14.471Z,15.50
2023-05-08T02:45:54.806Z,15.50
2023-05-08T02:48:30.711Z,15.50
2023-05-08T02:51:04.864Z,15.50
2023-05-08T02:53:52.246Z,15.50
2023-05-08T02:56:43.448Z,15.50
2023-05-08T02:59:19.039Z,15.50
2023-05-08T03:02:05.617Z,15.50
2023-05-08T03:04:41.914Z,15.40
2023-05-08T03:07:09.087Z,15.40
2023-05-08T03:09:50.756Z,15.50
2023-05-08T03:12:26.894Z,15.40
2023-05-08T03:15:02.356Z,15.40
2023-05-08T03:17:32.672Z,15.30
2023-05-08T03:20:03.635Z,15.30
2023-05-08T03:22:33.113Z,15.20
2023-05-08T03:25:01.510Z,15.30
2023-05-08T03:27:30.224Z,15.40
2023-05-08T03:29:59.495Z,15.40
2023-05-08T03:32:28.320Z,15.40
2023-05-08T03:34:58.724Z,15.40
2023-05-08T03:37:28.052Z,15.40
2023-05-08T03:39:56.122Z,15.30
2023-05-08T03:42:24.468Z,15.40
2023-05-08T03:44:52.289Z,15.30
2023-05-08T03:47:20.283Z,15.30
2023-05-08T03:49:49.388Z,15.30
2023-05-08T03:52:16.839Z,15.20
2023-05-08T03:54:43.844Z,15.20
2023-05-08T03:57:10.819Z,15.20
2023-05-08T03:59:53.222Z,15.20
2023-05-08T04:02:39.379Z,15.20
2023-05-08T04:05:43.511Z,15.20
2023-05-08T04:08:17.428Z,15.10
2023-05-08T04:10:59.464Z,15.20
2023-05-08T04:13:31.140Z,15.20
2023-05-08T04:16:17.420Z,15.10
2023-05-08T04:18:49.800Z,15.10
2023-05-08T04:21:23.478Z,15.10
2023-05-08T04:23:51.556Z,15.10
2023-05-08T04:26:19.095Z,15.00
2023-05-08T04:28:49.110Z,14.90
2023-05-08T04:31:17.226Z,14.80
2023-05-08T04:33:47.696Z,14.90
2023-05-08T04:36:14.856Z,15.00
2023-05-08T04:38:41.768Z,15.10
2023-05-08T04:41:08.909Z,15.20
2023-05-08T04:43:36.795Z,15.00
2023-05-08T04:46:06.174Z,15.10
2023-05-08T04:48:34.053Z,14.90
2023-05-08T04:51:01.075Z,14.70
2023-05-08T04:53:28.035Z,14.40
2023-05-08T04:55:54.879Z,14.60
2023-05-08T04:58:21.743Z,14.60
2023-05-08T05:00:49.086Z,14.40
2023-05-08T05:03:16.081Z,14.40
2023-05-08T05:05:43.074Z,14.30
2023-05-08T05:08:09.885Z,14.30
2023-05-08T05:10:38.995Z,14.30
2023-05-08T05:13:06.071Z,14.30
2023-05-08T05:15:32.978Z,14.50
2023-05-08T05:17:59.852Z,14.50
2023-05-08T05:20:26.674Z,14.50
2023-05-08T05:22:53.449Z,14.70
2023-05-08T05:25:20.336Z,14.70
2023-05-08T05:27:47.212Z,14.80
2023-05-08T05:30:14.414Z,14.70
2023-05-08T05:32:41.558Z,14.70
2023-05-08T05:35:09.738Z,14.80
2023-05-08T05:37:36.650Z,14.80
2023-05-08T05:40:06.027Z,14.80
2023-05-08T05:42:32.868Z,15.00
2023-05-08T05:44:59.732Z,15.20
2023-05-08T05:47:26.931Z,15.20
2023-05-08T05:49:53.720Z,15.20
2023-05-08T05:52:20.535Z,14.90
2023-05-08T05:54:47.604Z,14.90
2023-05-08T05:57:14.716Z,15.10
2023-05-08T05:59:41.601Z,15.20
2023-05-08T06:02:10.581Z,15.30
2023-05-08T06:04:37.531Z,15.40
2023-05-08T06:07:04.325Z,15.40
2023-05-08T06:09:31.234Z,15.20
2023-05-08T06:11:58.031Z,15.30
2023-05-08T06:14:24.877Z,15.40
2023-05-08T06:16:51.974Z,15.60
2023-05-08T06:19:18.817Z,15.50
2023-05-08T06:21:45.627Z,15.60
2023-05-08T06:24:12.397Z,15.60
2023-05-08T06:26:39.226Z,15.60
2023-05-08T06:29:06.202Z,15.70
2023-05-08T06:31:33.152Z,15.80
2023-05-08T06:34:00.138Z,15.90
2023-05-08T06:36:27.314Z,15.90
2023-05-08T06:38:54.229Z,16.00
2023-05-08T06:41:21.838Z,16.00
2023-05-08T06:43:48.632Z,16.10
2023-05-08T06:46:16.160Z,16.10
2023-05-08T06:48:43.026Z,16.20
2023-05-08T06:51:09.878Z,16.20
2023-05-08T06:53:36.663Z,16.10
2023-05-08T06:56:03.481Z,16.20
2023-05-08T06:58:32.172Z,16.10
2023-05-08T07:01:02.078Z,16.00
2023-05-08T07:03:28.993Z,16.00
2023-05-08T07:05:56.337Z,16.00
2023-05-08T07:08:23.180Z,15.80
2023-05-08T07:10:49.959Z,15.90
2023-05-08T07:13:21.710Z,15.90
2023-05-08T07:15:48.743Z,16.00
2023-05-08T07:18:15.652Z,16.00
2023-05-08T07:20:42.531Z,16.00
2023-05-08T07:23:09.994Z,16.00
2023-05-08T07:25:36.948Z,16.00
2023-05-08T07:28:04.010Z,15.90
2023-05-08T07:30:30.947Z,16.10
2023-05-08T07:32:57.803Z,16.10
2023-05-08T07:35:24.725Z,16.10
2023-05-08T07:37:51.540Z,16.00
2023-05-08T07:40:18.634Z,16.30
2023-05-08T07:42:45.624Z,16.20
2023-05-08T07:45:14.170Z,16.10
2023-05-08T07:47:55.906Z,16.00
2023-05-08T07:50:23.871Z,16.30
2023-05-08T07:52:51.239Z,16.30
2023-05-08T07:55:18.924Z,16.40
2023-05-08T07:57:46.317Z,16.50
2023-05-08T08:00:14.858Z,16.70
2023-05-08T08:02:42.971Z,16.70
2023-05-08T08:05:10.265Z,16.70
2023-05-08T08:07:37.447Z,16.70
2023-05-08T08:10:05.059Z,16.70
2023-05-08T08:12:32.083Z,17.10
2023-05-08T08:14:58.933Z,17.10
2023-05-08T08:17:28.427Z,17.00
2023-05-08T08:19:55.878Z,17.00
2023-05-08T08:22:23.330Z,17.10
2023-05-08T08:24:51.436Z,17.10
2023-05-08T08:27:19.227Z,17.20
2023-05-08T08:29:46.059Z,17.20
2023-05-08T08:32:13.026Z,17.20
2023-05-08T08:34:39.961Z,17.50
2023-05-08T08:37:07.048Z,17.50
2023-05-08T08:39:34.548Z,17.50
2023-05-08T08:42:02.097Z,17.30
2023-05-08T08:44:29.966Z,17.50
2023-05-08T08:47:00.199Z,17.50
2023-05-08T08:49:34.471Z,17.60
2023-05-08T08:52:11.914Z,17.60
2023-05-08T08:54:41.399Z,17.50
2023-05-08T08:57:09.856Z,17.70
2023-05-08T08:59:39.534Z,17.50
2023-05-08T09:02:11.731Z,17.50
2023-05-08T09:04:39.101Z,17.60
2023-05-08T09:07:07.201Z,17.70
2023-05-08T09:09:35.933Z,17.80
2023-05-08T09:12:02.949Z,18.00
2023-05-08T09:14:29.784Z,18.40
2023-05-08T09:16:56.726Z,18.50
2023-05-08T09:19:27.111Z,18.40
2023-05-08T09:21:58.467Z,18.40
2023-05-08T09:24:25.340Z,18.40
2023-05-08T09:26:52.146Z,18.60
2023-05-08T09:29:21.935Z,18.80
2023-05-08T09:31:53.038Z,18.80
2023-05-08T09:34:24.757Z,18.50
2023-05-08T09:36:51.629Z,18.40
2023-05-08T09:39:25.956Z,18.30
2023-05-08T09:42:03.587Z,18.30
2023-05-08T09:44:45.277Z,18.10
2023-05-08T09:47:13.156Z,17.80
2023-05-08T09:49:40.711Z,17.80
2023-05-08T09:52:08.502Z,18.00
2023-05-08T09:54:35.476Z,18.00
2023-05-08T09:57:12.858Z,18.00
2023-05-08T09:59:39.712Z,18.00
2023-05-08T10:02:12.969Z,17.90
2023-05-08T10:04:40.050Z,17.90
2023-05-08T10:07:07.146Z,18.00
2023-05-08T10:09:46.890Z,18.20
2023-05-08T10:12:17.346Z,18.10
2023-05-08T10:14:46.368Z,18.10
2023-05-08T10:17:15.599Z,18.10
2023-05-08T10:19:46.129Z,18.00
2023-05-08T10:22:15.823Z,18.10
2023-05-08T10:24:45.607Z,18.10
2023-05-08T10:27:19.573Z,18.20
2023-05-08T10:29:58.784Z,18.20
2023-05-08T10:32:28.582Z,18.20
2023-05-08T10:35:03.706Z,18.20
2023-05-08T10:37:31.221Z,18.00
2023-05-08T10:39:58.898Z,18.10
2023-05-08T10:42:27.727Z,18.20
2023-05-08T10:44:55.589Z,18.20
2023-05-08T10:47:53.695Z,18.30
2023-05-08T10:50:56.576Z,18.30
2023-05-08T10:53:53.998Z,18.50
2023-05-08T10:56:28.926Z,18.50
2023-05-08T10:58:57.634Z,18.40
2023-05-08T11:01:25.358Z,18.40
2023-05-08T11:03:52.971Z,18.30
2023-05-08T11:06:49.174Z,18.50
2023-05-08T11:09:23.161Z,18.50
2023-05-08T11:12:00.429Z,18.60
2023-05-08T11:14:28.114Z,18.60
2023-05-08T11:16:55.018Z,18.70
2023-05-08T11:19:23.601Z,18.80
2023-05-08T11:22:19.320Z,18.70
2023-05-08T11:24:54.941Z,18.70
2023-05-08T11:27:51.151Z,18.80
2023-05-08T11:30:38.018Z,19.00
2023-05-08T11:33:05.256Z,19.00
2023-05-08T11:35:44.171Z,19.10
2023-05-08T11:38:23.227Z,19.20
2023-05-08T11:41:08.883Z,19.20
2023-05-08T11:43:38.586Z,19.70
2023-05-08T11:46:15.410Z,20.20
2023-05-08T11:48:42.427Z,20.40
2023-05-08T11:51:09.986Z,20.60
2023-05-08T11:53:38.075Z,20.90
2023-05-08T11:56:05.303Z,20.90
2023-05-08T11:58:32.234Z,21.10
2023-05-08T12:00:59.070Z,21.50
2023-05-08T12:03:26.142Z,21.70
2023-05-08T12:05:57.169Z,21.80
2023-05-08T12:08:24.144Z,21.60
2023-05-08T12:10:59.976Z,21.60
2023-05-08T12:13:29.432Z,22.00
2023-05-08T12:15:57.667Z,21.90
2023-05-08T12:18:26.785Z,21.80
2023-05-08T12:20:59.260Z,21.70
2023-05-08T12:23:29.454Z,21.60
2023-05-08T12:26:00.191Z,21.60
2023-05-08T12:28:27.480Z,21.90
2023-05-08T12:30:54.534Z,22.10
2023-05-08T12:33:21.802Z,22.20
2023-05-08T12:35:49.126Z,22.30
2023-05-08T12:38:17.168Z,22.10
2023-05-08T12:40:44.948Z,21.60
2023-05-08T12:43:12.104Z,21.30
2023-05-08T12:45:41.381Z,21.10
2023-05-08T12:48:12.258Z,21.10
2023-05-08T12:50:44.892Z,21.10
2023-05-08T12:53:13.925Z,20.70
2023-05-08T12:55:52.895Z,20.80
2023-05-08T12:58:21.132Z,20.80
2023-05-08T13:00:50.065Z,20.90
2023-05-08T13:03:28.533Z,20.90
2023-05-08T13:05:58.385Z,21.20
2023-05-08T13:08:32.206Z,21.40
2023-05-08T13:10:59.891Z,21.40
2023-05-08T13:13:30.424Z,21.70
2023-05-08T13:15:57.714Z,21.60
2023-05-08T13:18:28.208Z,21.50
2023-05-08T13:20:56.196Z,21.40
2023-05-08T13:23:23.587Z,21.30
2023-05-08T13:25:51.279Z,21.20
2023-05-08T13:28:18.327Z,21.20
2023-05-08T13:30:45.211Z,21.20
2023-05-08T13:33:12.193Z,21.10
2023-05-08T13:35:39.347Z,21.00
2023-05-08T13:38:06.343Z,21.20
2023-05-08T13:40:33.472Z,21.40
2023-05-08T13:43:00.411Z,21.30
2023-05-08T13:45:27.422Z,21.50
2023-05-08T13:47:54.745Z,21.50
2023-05-08T13:50:22.359Z,21.40
2023-05-08T13:52:51.688Z,21.30
2023-05-08T13:55:22.763Z,21.30
2023-05-08T13:57:49.796Z,21.20
2023-05-08T14:00:17.461Z,21.10
2023-05-08T14:02:44.484Z,21.30
2023-05-08T14:05:11.743Z,21.00
2023-05-08T14:07:38.981Z,20.90
2023-05-08T14:10:06.189Z,20.80
2023-05-08T14:12:36.469Z,20.90
2023-05-08T14:15:07.080Z,20.70
2023-05-08T14:17:34.071Z,20.70
2023-05-08T14:20:01.027Z,20.40
2023-05-08T14:22:27.898Z,20.60
2023-05-08T14:24:54.991Z,20.70
2023-05-08T14:27:21.981Z,20.90
2023-05-08T14:29:49.307Z,20.90
2023-05-08T14:32:16.172Z,21.20
2023-05-08T14:34:43.010Z,21.30
2023-05-08T14:37:09.854Z,21.10
2023-05-08T14:39:36.760Z,21.00
2023-05-08T14:44:33.473Z,21.00
2023-05-08T14:47:00.433Z,20.90
2023-05-08T14:52:14.189Z,20.90
2023-05-08T14:54:41.188Z,20.90
2023-05-08T14:57:08.158Z,21.20
2023-05-08T14:59:34.972Z,21.10
2023-05-08T15:02:02.137Z,21.20
2023-05-08T15:04:29.044Z,21.30
2023-05-08T15:06:55.915Z,21.20
2023-05-08T15:09:22.742Z,21.20
2023-05-08T15:11:49.594Z,21.10
2023-05-08T15:14:16.391Z,21.00
2023-05-08T15:16:43.334Z,21.00
2023-05-08T15:19:10.432Z,20.90
2023-05-08T15:21:37.245Z,20.90
2023-05-08T15:24:04.364Z,20.90
2023-05-08T15:26:31.128Z,20.80
2023-05-08T15:28:57.970Z,20.90
2023-05-08T15:31:24.813Z,20.80
2023-05-08T15:33:51.750Z,20.60
2023-05-08T15:36:18.587Z,20.50
2023-05-08T15:38:45.566Z,20.70
2023-05-08T15:41:15.054Z,20.80
2023-05-08T15:43:43.038Z,20.60
2023-05-08T15:46:10.138Z,20.40
2023-05-08T15:48:37.229Z,20.40
2023-05-08T15:51:04.174Z,20.50
2023-05-08T15:53:30.997Z,20.50
2023-05-08T15:55:57.788Z,20.60
2023-05-08T15:58:24.894Z,20.60
2023-05-08T16:00:52.136Z,20.50
2023-05-08T16:03:19.445Z,20.40
2023-05-08T16:05:46.547Z,20.40
2023-05-08T16:08:13.889Z,20.30
2023-05-08T16:10:41.896Z,20.30
2023-05-08T16:13:09.130Z,20.20
2023-05-08T16:15:36.211Z,20.20
2023-05-08T16:18:03.509Z,20.10
2023-05-08T16:20:31.528Z,20.20
2023-05-08T16:22:59.809Z,20.10
2023-05-08T16:25:26.636Z,20.20
2023-05-08T16:27:53.557Z,20.30
2023-05-08T16:30:20.528Z,20.30
2023-05-08T16:32:47.538Z,20.30
2023-05-08T16:35:15.058Z,20.30
2023-05-08T16:37:42.411Z,20.30
2023-05-08T16:40:10.048Z,20.20
2023-05-08T16:42:37.333Z,20.20
2023-05-08T16:45:08.239Z,20.30
2023-05-08T16:47:35.542Z,20.20
2023-05-08T16:50:03.225Z,20.30
2023-05-08T16:52:30.528Z,20.30
2023-05-08T16:54:57.436Z,20.40
2023-05-08T16:57:24.423Z,20.30
2023-05-08T16:59:52.035Z,20.30
2023-05-08T17:02:19.156Z,20.30
2023-05-08T17:04:47.288Z,20.10
2023-05-08T17:07:15.619Z,20.20
2023-05-08T17:09:42.673Z,20.10
2023-05-08T17:12:10.059Z,19.90
2023-05-08T17:14:40.806Z,19.70
2023-05-08T17:17:08.202Z,19.80
2023-05-08T17:19:35.212Z,19.70
2023-05-08T17:22:02.562Z,19.40
2023-05-08T17:24:32.741Z,19.30
2023-05-08T17:26:59.743Z,19.10
2023-05-08T17:29:26.608Z,19.30
2023-05-08T17:31:53.549Z,19.20
2023-05-08T17:34:20.851Z,19.10
2023-05-08T17:36:47.771Z,19.00
2023-05-08T17:39:14.933Z,18.90
2023-05-08T17:41:41.790Z,19.00
2023-05-08T17:44:08.615Z,18.80
2023-05-08T17:46:35.463Z,18.90
2023-05-08T17:49:02.316Z,18.80
2023-05-08T17:51:29.321Z,18.80
2023-05-08T17:53:56.686Z,18.80
2023-05-08T17:56:23.983Z,18.80
2023-05-08T17:58:52.549Z,18.50
2023-05-08T18:01:20.373Z,18.50
2023-05-08T18:03:50.866Z,18.60
2023-05-08T18:06:18.184Z,18.70
2023-05-08T18:08:47.079Z,18.60
2023-05-08T18:11:22.400Z,18.60
2023-05-08T18:13:50.287Z,18.60
2023-05-08T18:16:18.842Z,18.40
2023-05-08T18:18:45.789Z,18.40
2023-05-08T18:21:12.788Z,18.40
2023-05-08T18:23:39.950Z,18.40
2023-05-08T18:26:07.562Z,18.40
2023-05-08T18:28:36.218Z,18.50
2023-05-08T18:31:03.440Z,18.60
2023-05-08T18:33:30.309Z,18.40
2023-05-08T18:35:57.238Z,18.40
2023-05-08T18:38:24.217Z,18.00
2023-05-08T18:40:51.112Z,18.00
2023-05-08T18:43:17.899Z,18.10
2023-05-08T18:45:44.819Z,18.20
2023-05-08T18:48:11.636Z,18.10
2023-05-08T18:50:38.640Z,18.20
2023-05-08T18:53:06.407Z,18.20
2023-05-08T18:55:33.352Z,18.30
2023-05-08T18:58:00.177Z,18.00
2023-05-08T19:00:27.047Z,18.20
2023-05-08T19:02:54.024Z,18.20
2023-05-08T19:05:21.197Z,18.10
2023-05-08T19:07:48.091Z,18.20
2023-05-08T19:10:15.218Z,18.10
2023-05-08T19:12:42.863Z,18.10
2023-05-08T19:15:13.411Z,18.10
2023-05-08T19:17:40.787Z,18.00
2023-05-08T19:20:08.270Z,17.90
2023-05-08T19:22:35.961Z,18.00
2023-05-08T19:25:03.446Z,18.00
2023-05-08T19:27:32.058Z,17.90
2023-05-08T19:29:59.063Z,18.00
2023-05-08T19:32:26.133Z,17.90
2023-05-08T19:34:53.586Z,17.80
2023-05-08T19:37:20.458Z,17.70
2023-05-08T19:39:47.374Z,17.70
2023-05-08T19:42:14.221Z,17.60
2023-05-08T19:44:41.252Z,17.40
2023-05-08T19:47:08.147Z,17.50
2023-05-08T19:49:35.043Z,17.60
2023-05-08T19:52:01.962Z,17.50
2023-05-08T19:54:30.325Z,17.50
2023-05-08T19:56:57.466Z,17.50
2023-05-08T19:59:24.431Z,17.50
2023-05-08T20:01:51.423Z,17.60
2023-05-08T20:04:18.311Z,17.50
2023-05-08T20:06:47.959Z,17.50
2023-05-08T20:09:14.815Z,17.50
2023-05-08T20:11:41.682Z,17.40
2023-05-08T20:14:08.821Z,17.40
2023-05-08T20:16:36.042Z,17.40
2023-05-08T20:19:03.089Z,17.40
2023-05-08T20:21:32.422Z,17.40
2023-05-08T20:23:59.795Z,17.40
2023-05-08T20:26:29.432Z,17.40
2023-05-08T20:28:56.970Z,17.30
2023-05-08T20:31:25.739Z,17.10
2023-05-08T20:33:52.763Z,17.20
2023-05-08T20:36:20.543Z,17.20
2023-05-08T20:38:47.540Z,17.20
2023-05-08T20:41:14.426Z,17.20
2023-05-08T20:43:41.308Z,17.20
2023-05-08T20:46:08.413Z,17.10
2023-05-08T20:48:35.364Z,17.10
2023-05-08T20:51:02.204Z,16.90
2023-05-08T20:53:29.175Z,17.00
2023-05-08T20:56:05.788Z,16.80
2023-05-08T20:58:32.624Z,16.90
2023-05-08T21:00:59.470Z,16.90
2023-05-08T21:03:26.347Z,16.90
2023-05-08T21:05:55.087Z,16.90
2023-05-08T21:08:23.686Z,16.90
2023-05-08T21:10:51.881Z,17.00
2023-05-08T21:13:19.318Z,16.90
2023-05-08T21:15:50.318Z,16.80
2023-05-08T21:18:17.422Z,16.90
2023-05-08T21:20:50.351Z,16.80
2023-05-08T21:23:18.138Z,16.80
2023-05-08T21:25:48.638Z,16.80
2023-05-08T21:28:16.473Z,16.90
2023-05-08T21:30:44.294Z,16.90
2023-05-08T21:33:13.683Z,16.80
2023-05-08T21:35:41.752Z,16.70
2023-05-08T21:38:09.316Z,16.70
2023-05-08T21:40:36.159Z,16.60
2023-05-08T21:43:02.942Z,16.50
2023-05-08T21:45:31.326Z,16.60
2023-05-08T21:47:58.795Z,16.60
2023-05-08T21:50:26.110Z,16.60
2023-05-08T21:52:53.289Z,16.60
2023-05-08T21:55:21.047Z,16.60
2023-05-08T21:57:48.261Z,16.60
2023-05-08T22:00:16.553Z,16.60
2023-05-08T22:02:43.388Z,16.60
2023-05-08T22:05:10.423Z,16.70
2023-05-08T22:07:37.230Z,16.50
2023-05-08T22:10:04.397Z,16.60
2023-05-08T22:12:31.167Z,16.70
2023-05-08T22:14:57.996Z,16.60
2023-05-08T22:17:24.929Z,16.60
2023-05-08T22:19:51.773Z,16.70
2023-05-08T22:22:18.556Z,16.70
2023-05-08T22:24:45.372Z,16.60
2023-05-08T22:27:12.193Z,16.60
2023-05-08T22:29:38.993Z,16.50
2023-05-08T22:32:06.035Z,16.50
2023-05-08T22:34:32.857Z,16.50
2023-05-08T22:36:59.635Z,16.50
2023-05-08T22:39:26.518Z,16.50
2023-05-08T22:41:54.271Z,16.50
2023-05-08T22:44:21.345Z,16.50
2023-05-08T22:46:48.239Z,16.50
2023-05-08T22:49:15.123Z,16.50
2023-05-08T22:51:42.168Z,16.40
2023-05-08T22:54:08.991Z,16.40
2023-05-08T22:56:35.866Z,16.40
2023-05-08T22:59:02.740Z,16.50
2023-05-08T23:01:29.675Z,16.50
2023-05-08T23:03:56.634Z,16.40
2023-05-08T23:06:24.248Z,16.50
2023-05-08T23:08:51.033Z,16.50
2023-05-08T23:11:17.897Z,16.50
2023-05-08T23:13:44.730Z,16.40
2023-05-08T23:16:11.551Z,16.40
2023-05-08T23:18:38.879Z,16.40
2023-05-08T23:21:07.440Z,16.40
2023-05-08T23:23:34.965Z,16.40
2023-05-08T23:26:04.868Z,16.40
2023-05-08T23:28:34.063Z,16.40
2023-05-08T23:31:01.710Z,16.40
2023-05-08T23:33:28.842Z,16.40
2023-05-08T23:35:59.088Z,16.30
2023-05-08T23:38:26.234Z,16.40
2023-05-08T23:40:53.014Z,16.40
2023-05-08T23:43:19.853Z,16.40
2023-05-08T23:45:46.801Z,16.20
2023-05-08T23:48:13.608Z,16.20
2023-05-08T23:50:41.735Z,16.20
2023-05-08T23:53:08.604Z,16.20
2023-05-08T23:55:37.271Z,16.20
2023-05-08T23:58:04.711Z,16.20
